首页
METAR-TAF:

METAR-TAF

机场 :

羅蘭加洛斯機場

圣但尼, 留尼汪岛

纬度: 20-53S, 经度: 055-31E, 海拔: 21米

当前天气观测

该预报发布于20分钟前的10:00 UTC
风速21节,风向东转东南
温度 25°C
湿度 65%
气压 1021 hPa
能见度10公里或以上
多云层高于6000英尺

METAR: FMEE 211000Z AUTO 11021KT 9999 BKN060 25/18 Q1021 TEMPO 12018G28KT

时间: 14:20 (10:20 UTC)

预报

该预报发布于5小时和20分钟前的05:00 UTC
预报有效从21日的 06点(UTC)到 22日的 12点(UTC)
风速15节,风向东南
能见度10公里或以上
散云层高于4000英尺
短暂存在
从 21日的 06点(UTC)到 21日的 13点(UTC)
风速18节,风向东转东南,有时为28节阵风
几率 40% :
短暂存在
从 22日的 03点(UTC)到 22日的 07点(UTC)
能見度: 4000
散云层高于2500英尺, 塔状积云.
多云层高于5000英尺
阵雨
短暂存在
从 22日的 06点(UTC)到 22日的 12点(UTC)
风速20节,风向东南,有时为30节阵风

TAF: FMEE 210500Z 2106/2212 13015KT 9999 SCT040 TEMPO 2106/2113 12018G28KT PROB40 TEMPO 2203/2207 4000 SHRA SCT025TCU BKN050 TEMPO 2206/2212 13020G30KT

超过4000个机场的气象观测和天气预报(METAR&TAF报告)。

可查询的气象台以黄色和红色小点在地图上表示。

将鼠标移到小点上方,可查看气象台名称。

然后点击查看天气观测和预报。

如需切换地图:点击带黑十字的绿色按钮放大地图;点击带横线的绿色按钮缩小地图;或者点击绿色箭头查看邻近地区的地图。


METAR-TAF: